Kimberly, WI (54136)

4:25 AM CDT on March 31, 2015 (GMT -0500)
N9OEQ - Darboy USA | | Change Station
CLOSE
Current Station
Personal Weather Station
Location: Appleton, WI
Elevation: 735 ft
Nearby Weather Stations
Active Advisory: Special Statement

Elev 735 ft 44.25 °N, 88.35 °W | Updated 8 seconds ago

Overcast
Overcast
35.6 °F
Feels Like 36 °F
N
0.0
Wind Variable Wind from North
Gusts 0.0 mph

Today
High -- | Low -- °F
--% Chance of Precip.
Yesterday
High -- | Low -- °F
Precip. -- in
6:36 AM 7:19 PM
Waxing Gibbous, 85% visible
Pressure 29.80 in
Visibility 10.0 miles
Clouds Scattered Clouds 3700 ft
Overcast 5500 ft
Windchill 36 °F
Dew Point 34 °F
Humidity 94%
Rainfall 0.00 in
Snow Depth Not available.
UV 0 out of 12
Pollen 5.40 out of 12
Air Quality Not available.
Flu Activity Not available.
METAR KATW 310915Z AUTO 02004KT 10SM SCT037 OVC055 01/01 A2980 RMK AO2

More Conditions Fewer Conditions

Pressure 29.80 in
Visibility 10.0 miles
Clouds Scattered Clouds 3700 ft
Overcast 5500 ft
Windchill 36 °F
Dew Point 34 °F
Humidity 94%
Rainfall 0.00 in
Snow Depth Not available.
UV 0 out of 12
Pollen 5.40 out of 12
Air Quality Not available.
Flu Activity Not available.
METAR KATW 310915Z AUTO 02004KT 10SM SCT037 OVC055 01/01 A2980 RMK AO2

More Conditions Fewer Conditions

10-Day Weather Forecast

Almanac

Astronomy

Mar. 31, 2015 Rise Set
Actual Time
Civil Twilight
Nautical Twilight
Astronomical Twilight
Moon
Length of Visible Light
Length of Day
Tomorrow will be .
, % of the Moon is Illuminated

Today's Extremes

State Highs State Lows

Community

WunderPhotos

Upload Photos

1,809,733 photos uploaded!

WunderBlogs® & News

Nearby

Air Quality

  Air Quality AQ Index Pollutant
Not available.

Snow Depth

Station Depth Elevation

Earthquake Activity

City Distance Mag. Time & Date
Minimum magnitude displayed is 2.5.

Coastal Water Temperatures

Place Temperature

Stations

Nearby Weather Stations

Station Location Temp. Windchill Dew Point Humidity Wind Precip. Elev Updated Type
                   
Special Statement
Statement as of 4:11 AM CDT on March 31, 2015

... Patchy dense fog may impact the morning commute...

As skies clear this morning... patchy fog is expected to develop
during the morning commute. Locally dense fog may reduce
visibilities to one-quarter mile or less at times. The foggy
conditions should improve by around 9 am.

Motorists should be alert for rapid changes in visibility... and
allow extra time for the morning commute. Be sure to slow down...
keep a safe distance from other vehicles... and use only low beam
headlights.